Terminal Aerodrome Forecast
Issued by NWS

Home | Current Version | Previous Version | Text Only | Print | Product List | Glossary On
Versions: 1 2 3 4 5 6 7 8 9 10 11 12 13 14 15 16
000
FTUS42 TJSJ 042045 AAB
TAFJMZ
TAF AMD
TJMZ 042045Z 0421/0518 27010KT P6SM VCSH SCT025 BKN050
      TEMPO 0421/0422 VRB10KT 6SM -SHRA BKN040
     FM042330 06005KT P6SM FEW030
     FM051530 27010KT P6SM VCTS SCT025CB BKN040
      AMD NOT SKED=

USA.gov is the U.S. government's official web portal to all federal, state and local government web resources and services.